Time;durP1;ratioP1;P1;durP2;ratioP2;P2;SDS_P1;SDS_P2;PMS_P1;PMS_P2;Temp;Humidity;BMP_temperature;BMP_pressure;BME280_temperature;BME280_humidity;BME280_pressure;Samples;Min_cycle;Max_cycle;Signal;HPM_P1;HPM_P2
2022/07/31 00:01:35;;;;;;;4.03;2.97;;;17.20;99.90;;;;;;5030846;28;20713;-69
2022/07/31 00:04:03;;;;;;;3.10;2.80;;;17.20;99.90;;;;;;5033997;28;20245;-69
2022/07/31 00:06:30;;;;;;;6.97;2.70;;;17.30;99.90;;;;;;5034227;28;20578;-69
2022/07/31 00:08:57;;;;;;;7.50;3.17;;;17.30;99.90;;;;;;5034400;28;20666;-70
2022/07/31 00:11:23;;;;;;;3.30;3.00;;;17.30;99.90;;;;;;5034291;28;20677;-69
2022/07/31 00:13:51;;;;;;;4.70;2.92;;;17.30;99.90;;;;;;5034311;28;20551;-69
2022/07/31 00:16:17;;;;;;;4.22;2.72;;;17.30;99.90;;;;;;5034598;28;20242;-69
2022/07/31 00:18:44;;;;;;;5.03;2.95;;;17.30;99.90;;;;;;5035581;28;20217;-68
2022/07/31 00:21:13;;;;;;;6.45;2.80;;;17.20;99.90;;;;;;5034702;28;20198;-70
2022/07/31 00:23:40;;;;;;;3.90;2.80;;;17.20;99.90;;;;;;5034258;28;20706;-68
2022/07/31 00:26:07;;;;;;;4.32;2.60;;;17.20;99.90;;;;;;5033296;28;20687;-69
2022/07/31 00:28:34;;;;;;;4.90;2.37;;;17.20;99.90;;;;;;5026503;28;20222;-69
2022/07/31 00:31:01;;;;;;;4.73;2.80;;;17.20;99.90;;;;;;5030735;28;20219;-68
2022/07/31 00:33:27;;;;;;;4.43;2.53;;;17.20;99.90;;;;;;5033960;28;20577;-69
2022/07/31 00:35:54;;;;;;;6.13;2.90;;;17.20;99.90;;;;;;5034037;28;20568;-69
2022/07/31 00:38:23;;;;;;;4.80;3.10;;;17.20;99.90;;;;;;5034133;28;20580;-70
2022/07/31 00:40:50;;;;;;;3.70;2.67;;;17.10;99.90;;;;;;5034179;28;20206;-69
2022/07/31 00:43:18;;;;;;;3.53;2.90;;;17.10;99.90;;;;;;5034650;28;20583;-69
2022/07/31 00:45:45;;;;;;;3.27;2.93;;;17.10;99.90;;;;;;5033842;28;20218;-69
2022/07/31 00:48:12;;;;;;;4.83;3.00;;;17.10;99.90;;;;;;5033116;28;20214;-68
2022/07/31 00:50:38;;;;;;;3.17;2.87;;;17.10;99.90;;;;;;5033569;28;20565;-69
2022/07/31 00:53:05;;;;;;;7.10;3.47;;;17.10;99.90;;;;;;5031010;28;20210;-68
2022/07/31 00:55:33;;;;;;;3.33;3.00;;;17.10;99.90;;;;;;5034508;28;20230;-68
2022/07/31 00:58:00;;;;;;;7.03;2.93;;;17.00;99.90;;;;;;5034024;28;20307;-68
2022/07/31 01:00:27;;;;;;;3.87;2.83;;;17.10;99.90;;;;;;5032064;28;20207;-68
2022/07/31 01:02:53;;;;;;;4.00;2.80;;;17.10;99.90;;;;;;5033734;28;20194;-69
2022/07/31 01:05:20;;;;;;;3.30;2.83;;;17.00;99.90;;;;;;5033120;28;20655;-68
2022/07/31 01:07:48;;;;;;;4.43;2.80;;;17.00;99.90;;;;;;5032121;28;20210;-68
2022/07/31 01:10:22;;;;;;;4.13;3.33;;;17.00;99.90;;;;;;5033198;28;20659;-67
2022/07/31 01:12:54;;;;;;;5.23;2.63;;;17.00;99.90;;;;;;5034184;28;20215;-68
2022/07/31 01:15:22;;;;;;;2.83;2.60;;;17.00;99.90;;;;;;5034050;28;20202;-69
2022/07/31 01:17:50;;;;;;;5.10;3.20;;;17.00;99.90;;;;;;5032347;28;20211;-68
2022/07/31 01:20:17;;;;;;;3.40;3.10;;;17.00;99.90;;;;;;5033586;28;20206;-68
2022/07/31 01:22:56;;;;;;;3.67;3.03;;;17.00;99.90;;;;;;5033833;28;20225;-67
2022/07/31 01:25:33;;;;;;;6.00;2.90;;;17.00;99.90;;;;;;5033259;28;20226;-69
2022/07/31 01:28:09;;;;;;;3.20;2.40;;;17.00;99.90;;;;;;5032466;28;20693;-69
2022/07/31 01:30:44;;;;;;;3.60;3.10;;;17.00;99.90;;;;;;5032017;28;20301;-68
2022/07/31 01:33:18;;;;;;;4.50;2.87;;;17.00;99.90;;;;;;5033673;28;20571;-68
2022/07/31 01:35:49;;;;;;;4.63;3.30;;;17.00;99.90;;;;;;5032856;28;20667;-68
2022/07/31 01:38:19;;;;;;;4.80;2.80;;;17.00;99.90;;;;;;5028941;28;20203;-68
2022/07/31 01:40:50;;;;;;;3.77;2.70;;;17.00;99.90;;;;;;5033346;28;20206;-68
2022/07/31 01:43:21;;;;;;;2.70;2.37;;;17.00;99.90;;;;;;5021905;28;20675;-69
2022/07/31 01:45:54;;;;;;;3.55;2.90;;;17.00;99.90;;;;;;5032587;28;20199;-68
2022/07/31 01:48:21;;;;;;;3.70;2.67;;;17.00;99.90;;;;;;5028021;28;20203;-68
2022/07/31 01:50:50;;;;;;;3.20;2.90;;;16.90;99.90;;;;;;5031723;28;20554;-68
2022/07/31 01:53:21;;;;;;;2.80;2.57;;;17.00;99.90;;;;;;5032967;28;20210;-68
2022/07/31 01:55:50;;;;;;;4.50;2.63;;;17.00;99.90;;;;;;5032368;28;20242;-69
2022/07/31 01:58:18;;;;;;;5.18;2.38;;;17.00;99.90;;;;;;5032918;28;20214;-68
2022/07/31 02:00:46;;;;;;;4.57;2.63;;;16.90;99.90;;;;;;5030088;28;20213;-69
2022/07/31 02:03:15;;;;;;;8.13;2.70;;;16.90;99.90;;;;;;5031919;28;20293;-68
2022/07/31 02:05:44;;;;;;;3.13;2.27;;;16.90;99.90;;;;;;5033264;28;20564;-69
2022/07/31 02:08:13;;;;;;;5.03;2.90;;;16.90;99.90;;;;;;5032997;28;20214;-69
2022/07/31 02:10:42;;;;;;;4.38;2.55;;;16.90;99.90;;;;;;5032367;28;20214;-68
2022/07/31 02:13:10;;;;;;;3.73;2.60;;;16.90;99.90;;;;;;5032668;28;20269;-68
2022/07/31 02:15:37;;;;;;;4.63;3.00;;;16.80;99.90;;;;;;5032805;28;20206;-68
2022/07/31 02:18:05;;;;;;;5.07;2.93;;;16.80;99.90;;;;;;5030380;28;20221;-68
2022/07/31 02:20:33;;;;;;;3.33;2.83;;;16.90;99.90;;;;;;5032802;28;20569;-68
2022/07/31 02:23:01;;;;;;;3.10;2.67;;;16.80;99.90;;;;;;5032787;28;20210;-68
2022/07/31 02:25:29;;;;;;;7.00;2.80;;;16.80;99.90;;;;;;5032837;28;20230;-69
2022/07/31 02:27:57;;;;;;;3.90;2.87;;;16.90;99.90;;;;;;5032464;28;20215;-69
2022/07/31 02:30:26;;;;;;;3.70;2.70;;;16.80;99.90;;;;;;5030403;28;20209;-69
2022/07/31 02:32:53;;;;;;;2.97;2.60;;;16.90;99.90;;;;;;5032939;28;20210;-68
2022/07/31 02:35:21;;;;;;;5.20;3.00;;;16.80;99.90;;;;;;5031131;28;20213;-69
2022/07/31 02:37:52;;;;;;;5.32;2.80;;;16.80;99.90;;;;;;5032512;28;20211;-68
2022/07/31 02:40:20;;;;;;;3.30;2.93;;;16.90;99.90;;;;;;5033188;28;20643;-68
2022/07/31 02:42:47;;;;;;;4.13;3.20;;;16.90;99.90;;;;;;5031176;28;20214;-68
2022/07/31 02:45:15;;;;;;;4.20;2.50;;;16.90;99.90;;;;;;5032282;28;20709;-68
2022/07/31 02:47:42;;;;;;;6.97;2.80;;;16.80;99.90;;;;;;5029352;28;20276;-67
2022/07/31 02:50:10;;;;;;;3.78;2.60;;;16.90;99.90;;;;;;5032285;28;20210;-67
2022/07/31 02:52:37;;;;;;;3.53;2.67;;;16.90;99.90;;;;;;5031630;28;20206;-68
2022/07/31 02:55:07;;;;;;;5.53;2.63;;;16.90;99.90;;;;;;5031834;28;20231;-67
2022/07/31 02:57:34;;;;;;;5.17;2.53;;;16.90;99.90;;;;;;5032389;28;20214;-69
2022/07/31 03:00:00;;;;;;;3.00;2.70;;;16.90;99.90;;;;;;5031304;28;20214;-68
2022/07/31 03:02:28;;;;;;;4.00;2.80;;;16.90;99.90;;;;;;5022547;28;20206;-69
2022/07/31 03:04:55;;;;;;;4.13;2.80;;;16.90;99.90;;;;;;5031653;28;20691;-69
2022/07/31 03:07:22;;;;;;;3.17;2.33;;;16.90;99.90;;;;;;5031939;28;20213;-68
2022/07/31 03:09:49;;;;;;;5.63;3.30;;;16.90;99.90;;;;;;5031405;28;20210;-68
2022/07/31 03:12:17;;;;;;;3.35;2.75;;;16.90;99.90;;;;;;5031514;28;20245;-68
2022/07/31 03:14:44;;;;;;;5.55;2.80;;;16.90;99.90;;;;;;5033018;28;20206;-69
2022/07/31 03:17:11;;;;;;;4.43;3.00;;;16.90;99.90;;;;;;5031660;28;20681;-68
2022/07/31 03:19:38;;;;;;;3.28;2.97;;;16.90;99.90;;;;;;5033548;28;20231;-69
2022/07/31 03:22:05;;;;;;;4.73;2.60;;;16.90;99.90;;;;;;5030273;28;20913;-68
2022/07/31 03:24:32;;;;;;;3.30;2.83;;;16.90;99.90;;;;;;5018813;28;20238;-68
2022/07/31 03:26:59;;;;;;;4.13;2.67;;;16.90;99.90;;;;;;5031752;28;20226;-67
2022/07/31 03:29:37;;;;;;;3.70;3.23;;;16.90;99.90;;;;;;5030853;28;20257;-69
2022/07/31 03:32:04;;;;;;;3.70;2.80;;;16.90;99.90;;;;;;5030766;28;20207;-68
2022/07/31 03:34:31;;;;;;;5.53;2.93;;;16.90;99.90;;;;;;5031922;28;20203;-68
2022/07/31 03:36:58;;;;;;;3.33;2.73;;;16.90;99.90;;;;;;5024048;28;20277;-68
2022/07/31 03:39:25;;;;;;;3.93;2.63;;;17.00;99.90;;;;;;5031679;28;20214;-67
2022/07/31 03:41:54;;;;;;;3.85;2.80;;;16.90;99.90;;;;;;5030412;28;20209;-69
2022/07/31 03:44:21;;;;;;;3.00;2.70;;;16.90;99.90;;;;;;5031752;28;20231;-69
2022/07/31 03:46:50;;;;;;;3.93;2.60;;;16.90;99.90;;;;;;5031920;28;20211;-68
2022/07/31 03:49:17;;;;;;;3.27;2.97;;;16.90;99.90;;;;;;5031558;28;20587;-67
2022/07/31 03:51:44;;;;;;;3.95;3.10;;;16.90;99.90;;;;;;5017605;28;20210;-68
2022/07/31 03:54:11;;;;;;;5.27;3.13;;;16.90;99.90;;;;;;5030020;28;20234;-68
2022/07/31 03:56:39;;;;;;;3.13;2.90;;;16.90;99.90;;;;;;5029521;28;20210;-67
2022/07/31 03:59:06;;;;;;;3.53;2.80;;;16.90;99.90;;;;;;5031167;28;20230;-68
2022/07/31 04:01:34;;;;;;;3.93;3.00;;;16.90;99.90;;;;;;5031937;28;20214;-69
2022/07/31 04:04:02;;;;;;;4.00;3.07;;;16.90;99.90;;;;;;5030043;28;20671;-69
2022/07/31 04:06:29;;;;;;;4.80;3.40;;;16.90;99.90;;;;;;5032193;28;20211;-68
2022/07/31 04:08:56;;;;;;;3.50;3.03;;;16.90;99.90;;;;;;5028972;28;20238;-67
2022/07/31 04:11:22;;;;;;;3.23;2.93;;;16.90;99.90;;;;;;5035316;28;20213;-68
2022/07/31 04:13:49;;;;;;;4.93;3.30;;;16.90;99.90;;;;;;5035459;28;20222;-69
2022/07/31 04:16:16;;;;;;;4.47;3.37;;;16.90;99.90;;;;;;5035249;28;20206;-69
2022/07/31 04:18:43;;;;;;;3.43;3.07;;;16.90;99.90;;;;;;5036684;28;20673;-68
2022/07/31 04:21:11;;;;;;;3.92;2.95;;;16.80;99.90;;;;;;5035138;28;20207;-68
2022/07/31 04:23:38;;;;;;;3.80;3.50;;;16.80;99.90;;;;;;5034818;28;20217;-69
2022/07/31 04:26:05;;;;;;;3.53;3.03;;;16.80;99.90;;;;;;5032570;28;20320;-69
2022/07/31 04:28:32;;;;;;;3.67;2.90;;;16.80;99.90;;;;;;5034288;28;20609;-69
2022/07/31 04:30:59;;;;;;;4.97;3.50;;;16.80;99.90;;;;;;5033400;28;20296;-68
2022/07/31 04:33:26;;;;;;;3.70;2.87;;;16.80;99.90;;;;;;5034964;28;20242;-69
2022/07/31 04:35:53;;;;;;;3.23;2.80;;;16.80;99.90;;;;;;5035626;28;20210;-69
2022/07/31 04:38:21;;;;;;;3.27;2.67;;;16.80;99.90;;;;;;5034944;28;20203;-68
2022/07/31 04:40:49;;;;;;;3.10;2.57;;;16.80;99.90;;;;;;5034686;28;20206;-69
2022/07/31 04:43:16;;;;;;;2.87;2.33;;;16.80;99.90;;;;;;5030748;28;20433;-69
2022/07/31 04:45:43;;;;;;;3.05;2.75;;;16.80;99.90;;;;;;5028971;28;20268;-68
2022/07/31 04:48:11;;;;;;;3.10;2.60;;;16.90;99.90;;;;;;5033862;28;20217;-69
2022/07/31 04:50:37;;;;;;;2.70;2.50;;;16.90;99.90;;;;;;5035128;28;20214;-69
2022/07/31 04:53:04;;;;;;;2.92;2.20;;;16.90;99.90;;;;;;5032425;28;20305;-69
2022/07/31 04:55:32;;;;;;;3.00;2.63;;;16.90;99.90;;;;;;5034308;28;20707;-68
2022/07/31 04:57:59;;;;;;;3.80;2.37;;;16.90;99.90;;;;;;5034356;28;20218;-68
2022/07/31 05:00:26;;;;;;;2.50;2.30;;;16.90;99.90;;;;;;5026658;28;20203;-68
2022/07/31 05:02:53;;;;;;;2.27;2.07;;;16.90;99.90;;;;;;5034486;28;20257;-68
2022/07/31 05:05:20;;;;;;;2.77;1.90;;;16.90;99.90;;;;;;5033523;28;20245;-69
2022/07/31 05:07:46;;;;;;;3.10;2.30;;;16.90;99.90;;;;;;5033436;28;20215;-68
2022/07/31 05:11:21;;;;;;;2.17;2.07;;;16.90;99.90;;;;;;5033952;28;20561;-68
2022/07/31 05:13:01;;;;;;;2.00;1.90;;;16.90;99.90;;;;;;5034075;28;20210;-68
2022/07/31 05:15:28;;;;;;;2.00;1.90;;;16.90;99.90;;;;;;5030938;28;20203;-69
2022/07/31 05:17:55;;;;;;;1.80;1.70;;;16.90;99.90;;;;;;5034160;28;20210;-70
2022/07/31 05:20:22;;;;;;;1.88;1.77;;;16.90;99.90;;;;;;5035355;28;20206;-69
2022/07/31 05:22:48;;;;;;;1.67;1.57;;;16.90;99.90;;;;;;5033877;28;20207;-68
2022/07/31 05:25:15;;;;;;;1.90;1.50;;;16.90;99.90;;;;;;5033375;28;20257;-67
2022/07/31 05:27:42;;;;;;;1.70;1.60;;;16.90;99.90;;;;;;5034190;28;20203;-68
2022/07/31 05:30:12;;;;;;;1.47;1.37;;;16.80;99.90;;;;;;5027168;28;20210;-68
2022/07/31 05:32:38;;;;;;;1.48;1.38;;;16.80;99.90;;;;;;5031616;28;20274;-70
2022/07/31 05:35:06;;;;;;;1.70;1.60;;;16.80;99.90;;;;;;5033741;28;20206;-68
2022/07/31 05:37:33;;;;;;;1.23;1.20;;;16.80;99.90;;;;;;5033995;28;20297;-68
2022/07/31 05:40:00;;;;;;;1.83;1.50;;;16.80;99.90;;;;;;5033862;28;20207;-69
2022/07/31 05:42:27;;;;;;;1.40;1.30;;;16.80;99.90;;;;;;5034007;28;20207;-69
2022/07/31 05:44:54;;;;;;;1.10;1.10;;;16.80;99.90;;;;;;5033240;28;20595;-69
2022/07/31 05:47:22;;;;;;;1.07;1.07;;;16.90;99.90;;;;;;5033146;28;20201;-69
2022/07/31 05:49:48;;;;;;;1.67;1.30;;;16.90;99.90;;;;;;5028139;28;20553;-68
2022/07/31 05:52:17;;;;;;;1.43;1.33;;;16.90;99.90;;;;;;5034121;28;20214;-68
2022/07/31 05:54:44;;;;;;;1.27;1.17;;;16.90;99.90;;;;;;5031356;28;21332;-70
2022/07/31 05:57:11;;;;;;;2.67;1.77;;;16.90;99.90;;;;;;5032975;28;20209;-69
2022/07/31 05:59:37;;;;;;;1.47;1.20;;;16.90;99.90;;;;;;5030404;28;20210;-69
2022/07/31 06:02:04;;;;;;;1.30;1.30;;;16.90;99.90;;;;;;5032306;28;20206;-69
2022/07/31 06:04:32;;;;;;;1.73;1.20;;;16.90;99.90;;;;;;5030034;28;20642;-69
2022/07/31 06:06:59;;;;;;;3.23;1.47;;;16.90;99.90;;;;;;5032497;28;20217;-69
2022/07/31 06:09:26;;;;;;;1.07;1.07;;;16.90;99.90;;;;;;5032658;28;20210;-69
2022/07/31 06:11:53;;;;;;;1.20;1.10;;;16.90;99.90;;;;;;5033329;28;20210;-68
2022/07/31 06:14:19;;;;;;;1.30;1.20;;;16.90;99.90;;;;;;5031687;28;20207;-69
2022/07/31 06:16:48;;;;;;;1.83;1.30;;;16.90;99.90;;;;;;5032832;28;20209;-69
2022/07/31 06:19:15;;;;;;;1.47;1.20;;;16.80;99.90;;;;;;5032911;28;20248;-69
2022/07/31 06:21:43;;;;;;;1.40;1.30;;;16.80;99.90;;;;;;5030975;28;20214;-69
2022/07/31 06:24:10;;;;;;;1.30;1.20;;;16.80;99.90;;;;;;5032657;28;20309;-69
2022/07/31 06:26:37;;;;;;;1.33;1.27;;;16.80;99.90;;;;;;5032973;28;20234;-71
2022/07/31 06:29:04;;;;;;;1.07;1.07;;;16.80;99.90;;;;;;5032363;28;20205;-71
2022/07/31 06:31:31;;;;;;;1.20;1.10;;;16.80;99.90;;;;;;5033147;28;20209;-71
2022/07/31 06:33:58;;;;;;;1.30;1.20;;;16.80;99.90;;;;;;5034462;28;20214;-71
2022/07/31 06:36:25;;;;;;;1.50;1.40;;;16.80;99.90;;;;;;5032721;28;20214;-71
2022/07/31 06:38:53;;;;;;;1.20;1.10;;;16.80;99.90;;;;;;5032338;28;20329;-70
2022/07/31 06:44:00;;;;;;;2.20;1.20;;;16.80;99.90;;;;;;5033178;28;20243;-70
2022/07/31 06:46:27;;;;;;;1.10;1.10;;;16.70;99.90;;;;;;5036077;28;20227;-71
2022/07/31 06:48:54;;;;;;;1.53;1.10;;;16.70;99.90;;;;;;5035076;28;20321;-70
2022/07/31 06:51:21;;;;;;;1.07;1.07;;;16.70;99.90;;;;;;5033255;28;20222;-70
2022/07/31 06:53:48;;;;;;;1.60;1.37;;;16.70;99.90;;;;;;5033382;28;20214;-70
2022/07/31 06:56:16;;;;;;;1.23;1.13;;;16.70;99.90;;;;;;5033936;28;20211;-70
2022/07/31 06:58:43;;;;;;;1.65;1.27;;;16.70;99.90;;;;;;5020642;28;20707;-71
2022/07/31 07:01:09;;;;;;;1.23;1.13;;;16.70;99.90;;;;;;5032313;28;20206;-70
2022/07/31 07:03:36;;;;;;;1.20;1.20;;;16.80;99.90;;;;;;5033708;28;20213;-70
2022/07/31 07:06:03;;;;;;;1.87;1.13;;;16.80;99.90;;;;;;5032385;28;20231;-70
2022/07/31 07:08:30;;;;;;;1.23;1.13;;;16.80;99.90;;;;;;5031633;28;20203;-69
2022/07/31 07:10:56;;;;;;;1.17;1.10;;;16.80;99.90;;;;;;5027751;28;20217;-69
2022/07/31 07:13:25;;;;;;;1.13;1.10;;;16.80;99.90;;;;;;5031851;28;20222;-69
2022/07/31 07:15:52;;;;;;;1.40;1.30;;;16.80;99.90;;;;;;5030647;28;20653;-68
2022/07/31 07:18:20;;;;;;;1.27;1.20;;;16.80;99.90;;;;;;5032049;28;20583;-67
2022/07/31 07:20:47;;;;;;;1.20;1.20;;;16.90;99.90;;;;;;5028658;28;20210;-67
2022/07/31 07:23:14;;;;;;;1.50;1.40;;;16.90;99.90;;;;;;5026861;28;20217;-68
2022/07/31 07:25:41;;;;;;;1.40;1.30;;;16.90;99.90;;;;;;5030764;28;20691;-67
2022/07/31 07:28:08;;;;;;;1.60;1.50;;;16.90;99.90;;;;;;5027538;28;20206;-69
2022/07/31 07:30:36;;;;;;;1.40;1.30;;;16.90;99.90;;;;;;5032488;28;20217;-68
2022/07/31 07:33:04;;;;;;;1.50;1.33;;;16.90;99.90;;;;;;5028994;28;20210;-68
2022/07/31 07:35:31;;;;;;;1.50;1.40;;;17.00;99.90;;;;;;5028815;28;20555;-68
2022/07/31 07:37:58;;;;;;;1.60;1.40;;;17.00;99.90;;;;;;5031125;28;20209;-67
2022/07/31 07:40:25;;;;;;;1.87;1.63;;;17.00;99.90;;;;;;5032278;28;20207;-67
2022/07/31 07:42:53;;;;;;;1.70;1.60;;;17.00;99.90;;;;;;5034230;28;20203;-69
2022/07/31 07:45:20;;;;;;;2.10;1.90;;;17.00;99.90;;;;;;5035666;28;20229;-68
2022/07/31 07:47:48;;;;;;;1.60;1.50;;;17.10;99.90;;;;;;5037842;28;20217;-69
2022/07/31 07:50:15;;;;;;;3.00;1.77;;;17.10;99.90;;;;;;5037998;28;20210;-68
2022/07/31 07:52:42;;;;;;;3.10;2.10;;;17.10;99.90;;;;;;5036850;28;20225;-68
2022/07/31 07:55:11;;;;;;;2.30;2.10;;;17.10;99.90;;;;;;5038977;28;20592;-68
2022/07/31 07:57:38;;;;;;;3.10;2.20;;;17.20;99.90;;;;;;5035043;28;20238;-68
2022/07/31 08:00:08;;;;;;;2.47;2.33;;;17.20;99.90;;;;;;5036354;28;20578;-66
2022/07/31 08:02:35;;;;;;;2.70;2.50;;;17.20;99.90;;;;;;5032101;28;20213;-67
2022/07/31 08:05:03;;;;;;;2.60;2.40;;;17.30;99.90;;;;;;5037605;28;20210;-68
2022/07/31 08:07:31;;;;;;;3.00;2.80;;;17.30;99.90;;;;;;5037393;28;20210;-67
2022/07/31 08:09:59;;;;;;;3.23;2.80;;;17.30;99.90;;;;;;5037846;28;20211;-69
2022/07/31 08:12:26;;;;;;;3.17;2.88;;;17.30;99.90;;;;;;5037984;28;20217;-69
2022/07/31 08:14:53;;;;;;;3.10;2.90;;;17.30;99.90;;;;;;5033065;28;20246;-69
2022/07/31 08:17:20;;;;;;;3.33;3.00;;;17.40;99.90;;;;;;4986389;28;20232;-68
2022/07/31 08:19:47;;;;;;;3.07;2.87;;;17.40;99.90;;;;;;4999015;28;20243;-69
2022/07/31 08:22:15;;;;;;;2.70;2.50;;;17.40;99.90;;;;;;4997224;28;20215;-67
2022/07/31 08:24:42;;;;;;;3.47;3.17;;;17.50;99.90;;;;;;4992485;28;20615;-68
2022/07/31 08:27:24;;;;;;;3.40;3.10;;;17.50;99.90;;;;;;4996241;28;20240;-67
2022/07/31 08:29:52;;;;;;;3.33;3.00;;;17.50;99.90;;;;;;4993333;28;20298;-68
2022/07/31 08:32:19;;;;;;;3.70;3.40;;;17.40;99.90;;;;;;4991462;28;20215;-69
2022/07/31 08:34:46;;;;;;;3.80;3.43;;;17.50;99.90;;;;;;4993426;28;20235;-68
2022/07/31 08:37:18;;;;;;;3.33;2.93;;;17.60;99.90;;;;;;4994768;28;20589;-69
2022/07/31 08:39:45;;;;;;;3.65;3.40;;;17.60;99.90;;;;;;4995313;28;20219;-69
2022/07/31 08:42:11;;;;;;;2.95;2.70;;;17.60;99.90;;;;;;4999310;28;20262;-68
2022/07/31 08:44:39;;;;;;;3.90;3.47;;;17.60;99.90;;;;;;4987568;28;20216;-69
2022/07/31 08:47:07;;;;;;;4.07;3.67;;;17.60;99.90;;;;;;4990884;28;20711;-69
2022/07/31 08:49:40;;;;;;;3.65;3.35;;;17.60;99.90;;;;;;4992245;28;20657;-69
2022/07/31 08:52:09;;;;;;;3.78;3.47;;;17.70;99.90;;;;;;4994036;28;20234;-69
2022/07/31 08:54:41;;;;;;;3.80;3.50;;;17.70;99.90;;;;;;4991293;28;20725;-69
2022/07/31 08:57:08;;;;;;;3.80;3.50;;;17.80;99.90;;;;;;4993832;28;20204;-69
2022/07/31 08:59:37;;;;;;;8.45;3.67;;;17.70;99.90;;;;;;4994678;28;20204;-69
2022/07/31 09:02:05;;;;;;;4.15;3.85;;;17.80;99.90;;;;;;4992758;28;20211;-70
2022/07/31 09:04:33;;;;;;;4.00;3.70;;;17.80;99.90;;;;;;4989751;28;20203;-68
2022/07/31 09:07:00;;;;;;;3.65;3.35;;;17.80;99.90;;;;;;4994438;28;20235;-69
2022/07/31 09:09:27;;;;;;;3.43;3.13;;;17.90;99.90;;;;;;4990608;28;20255;-68
2022/07/31 09:11:55;;;;;;;4.03;3.73;;;17.90;99.90;;;;;;4982551;28;20204;-66
2022/07/31 09:14:27;;;;;;;3.87;3.57;;;18.00;99.90;;;;;;4989197;28;20231;-69
2022/07/31 09:16:55;;;;;;;3.67;3.33;;;18.00;99.90;;;;;;4987678;28;20212;-67
2022/07/31 09:19:23;;;;;;;4.00;3.70;;;18.00;99.90;;;;;;4992327;28;20680;-68
2022/07/31 09:21:51;;;;;;;4.47;4.07;;;18.00;99.90;;;;;;4990970;28;20214;-69
2022/07/31 09:24:29;;;;;;;3.90;3.60;;;18.00;99.90;;;;;;4994724;28;20782;-69
2022/07/31 09:27:04;;;;;;;4.25;3.92;;;18.10;99.90;;;;;;4990306;28;20232;-69
2022/07/31 09:29:34;;;;;;;4.00;3.70;;;18.10;99.90;;;;;;4984526;28;20204;-69
2022/07/31 09:32:08;;;;;;;6.85;4.50;;;18.00;99.90;;;;;;4993907;28;20219;-68
2022/07/31 09:34:35;;;;;;;6.33;4.10;;;18.10;99.90;;;;;;4994572;28;20204;-69
2022/07/31 09:37:08;;;;;;;4.07;3.78;;;18.20;99.90;;;;;;4985643;28;20218;-69
2022/07/31 09:39:36;;;;;;;20.35;14.27;;;18.20;99.90;;;;;;4995017;28;20200;-68
2022/07/31 09:42:04;;;;;;;4.38;3.85;;;18.30;99.90;;;;;;4992653;28;20209;-68
2022/07/31 09:44:42;;;;;;;6.63;5.38;;;18.30;99.90;;;;;;4987779;28;20209;-69
2022/07/31 09:47:21;;;;;;;19.60;12.80;;;18.30;99.90;;;;;;4993807;28;20235;-70
2022/07/31 09:49:53;;;;;;;25.00;20.10;;;18.30;99.90;;;;;;4990014;28;20283;-68
2022/07/31 09:52:21;;;;;;;18.83;16.50;;;18.30;99.90;;;;;;4993852;28;20661;-68
2022/07/31 09:54:48;;;;;;;5.68;4.80;;;18.30;99.90;;;;;;4993790;28;20243;-73
2022/07/31 09:57:16;;;;;;;3.80;3.45;;;18.40;99.90;;;;;;4992488;28;20231;-70
2022/07/31 09:59:44;;;;;;;5.68;4.85;;;18.40;99.90;;;;;;4992881;28;20220;-69
2022/07/31 10:02:15;;;;;;;4.90;4.50;;;18.30;99.90;;;;;;4988378;28;21055;-71
2022/07/31 10:04:45;;;;;;;6.05;5.38;;;18.30;99.90;;;;;;4992476;28;20735;-69
2022/07/31 10:07:13;;;;;;;8.45;5.90;;;18.30;99.90;;;;;;4990795;28;20589;-70
2022/07/31 10:09:42;;;;;;;10.55;8.20;;;18.30;99.90;;;;;;4989351;28;20222;-69
2022/07/31 10:12:13;;;;;;;4.80;4.38;;;18.40;99.90;;;;;;4988080;28;20215;-73
2022/07/31 10:14:44;;;;;;;6.05;5.22;;;18.50;99.90;;;;;;4991691;28;20296;-70
2022/07/31 10:17:15;;;;;;;4.40;4.00;;;18.50;99.90;;;;;;4984730;28;20203;-70
2022/07/31 10:19:46;;;;;;;2.88;2.60;;;18.50;99.90;;;;;;4988285;28;20208;-69
2022/07/31 10:22:16;;;;;;;3.58;3.20;;;18.50;99.90;;;;;;4990516;28;20708;-68
2022/07/31 10:24:47;;;;;;;4.03;3.63;;;18.50;99.90;;;;;;4992004;28;20206;-71
2022/07/31 10:27:17;;;;;;;2.70;2.50;;;18.40;99.90;;;;;;4991984;28;20216;-69
2022/07/31 10:29:46;;;;;;;3.72;3.22;;;18.40;99.90;;;;;;4991808;28;20692;-70
2022/07/31 10:32:13;;;;;;;3.72;3.13;;;18.50;99.90;;;;;;4991721;28;20208;-71
2022/07/31 10:34:40;;;;;;;3.45;3.15;;;18.50;99.90;;;;;;4993367;28;20593;-71
2022/07/31 10:37:11;;;;;;;4.07;3.67;;;18.50;99.90;;;;;;4991456;28;20231;-71
2022/07/31 10:39:45;;;;;;;2.90;2.70;;;18.60;99.90;;;;;;4992420;28;20204;-71
2022/07/31 10:42:19;;;;;;;2.78;2.58;;;18.60;99.90;;;;;;4990005;28;20211;-70
2022/07/31 10:44:52;;;;;;;2.55;2.38;;;18.60;99.90;;;;;;4992183;28;20227;-69
2022/07/31 10:47:19;;;;;;;3.13;2.83;;;18.50;99.90;;;;;;4992938;28;21135;-69
2022/07/31 10:49:49;;;;;;;2.80;2.50;;;18.50;99.90;;;;;;4986964;28;20313;-69
2022/07/31 10:52:26;;;;;;;2.35;2.22;;;18.60;99.90;;;;;;4993511;28;20208;-69
2022/07/31 10:54:56;;;;;;;2.97;2.65;;;18.60;99.90;;;;;;4991479;28;20239;-70
2022/07/31 10:57:24;;;;;;;2.92;2.60;;;18.60;99.90;;;;;;4990665;28;20243;-69
2022/07/31 10:59:53;;;;;;;3.22;2.63;;;18.60;99.90;;;;;;4992353;28;20204;-69
2022/07/31 11:02:30;;;;;;;2.65;2.45;;;18.60;99.90;;;;;;4993432;28;20215;-70
2022/07/31 11:05:07;;;;;;;2.85;2.40;;;18.50;99.90;;;;;;4980740;28;20208;-68
2022/07/31 11:07:34;;;;;;;2.80;2.60;;;18.70;99.90;;;;;;4979702;28;20224;-68
2022/07/31 11:10:09;;;;;;;3.70;2.33;;;18.60;99.90;;;;;;4992854;28;20208;-69
2022/07/31 11:12:36;;;;;;;2.33;2.17;;;18.60;99.90;;;;;;4993424;28;20199;-68
2022/07/31 11:15:16;;;;;;;3.67;2.40;;;18.70;99.90;;;;;;4988471;28;20234;-70
2022/07/31 11:17:43;;;;;;;2.55;2.35;;;18.70;99.90;;;;;;4993483;28;20203;-69
2022/07/31 11:20:19;;;;;;;2.80;2.60;;;18.80;99.90;;;;;;4989149;28;20564;-69
2022/07/31 11:22:59;;;;;;;2.22;2.03;;;18.80;99.90;;;;;;4996505;28;20207;-69
2022/07/31 11:25:29;;;;;;;2.33;2.13;;;18.80;99.90;;;;;;4993619;28;20266;-69
2022/07/31 11:27:57;;;;;;;2.38;2.22;;;18.80;99.90;;;;;;4996193;28;20231;-69
2022/07/31 11:30:25;;;;;;;4.63;2.22;;;18.80;99.90;;;;;;4997591;28;20211;-69
2022/07/31 11:32:53;;;;;;;2.42;2.22;;;18.80;99.90;;;;;;4995583;28;20227;-69
2022/07/31 11:35:31;;;;;;;2.50;2.08;;;18.80;99.90;;;;;;4990296;28;20576;-68
2022/07/31 11:37:58;;;;;;;2.30;2.10;;;18.80;99.90;;;;;;4996277;28;20208;-68
2022/07/31 11:40:26;;;;;;;2.95;2.40;;;18.70;99.90;;;;;;4998190;28;20756;-69
2022/07/31 11:42:53;;;;;;;2.80;2.53;;;18.70;99.90;;;;;;4992254;28;20661;-68
2022/07/31 11:45:20;;;;;;;3.28;2.53;;;18.60;99.90;;;;;;4985928;28;20212;-68
2022/07/31 11:47:50;;;;;;;3.67;2.67;;;18.60;99.90;;;;;;4991797;28;20223;-70
2022/07/31 11:50:17;;;;;;;5.43;3.33;;;18.60;99.90;;;;;;4998441;28;20284;-70
2022/07/31 11:52:46;;;;;;;2.58;2.28;;;18.70;99.90;;;;;;4998117;28;20687;-68
2022/07/31 11:55:15;;;;;;;3.60;2.60;;;18.70;99.90;;;;;;4993076;28;20250;-69
2022/07/31 11:57:43;;;;;;;2.67;2.10;;;18.70;99.90;;;;;;4996460;28;20594;-69
2022/07/31 12:00:12;;;;;;;2.72;2.53;;;18.80;99.90;;;;;;4990946;28;20599;-69
2022/07/31 12:02:43;;;;;;;3.25;2.95;;;18.80;99.90;;;;;;4997562;28;20299;-70
2022/07/31 12:05:13;;;;;;;2.83;2.30;;;18.70;99.90;;;;;;4983116;28;20225;-69
2022/07/31 12:07:41;;;;;;;3.13;2.83;;;18.70;99.90;;;;;;4995407;28;20685;-70
2022/07/31 12:10:10;;;;;;;3.63;2.60;;;18.70;99.90;;;;;;4988559;28;20657;-68
2022/07/31 12:12:38;;;;;;;3.10;2.67;;;18.60;99.90;;;;;;4980677;28;20212;-69
2022/07/31 12:15:17;;;;;;;5.05;2.45;;;18.60;99.90;;;;;;4988355;28;20207;-68
2022/07/31 12:17:44;;;;;;;3.35;2.60;;;18.60;99.90;;;;;;4988987;28;20212;-69
2022/07/31 12:20:13;;;;;;;3.75;2.85;;;18.60;99.90;;;;;;4996629;28;20700;-69
2022/07/31 12:22:41;;;;;;;3.67;3.05;;;18.70;99.90;;;;;;4996370;28;20282;-69
2022/07/31 12:25:11;;;;;;;3.65;3.15;;;18.70;99.90;;;;;;4993738;28;20395;-71
2022/07/31 12:27:38;;;;;;;3.63;3.03;;;18.70;99.90;;;;;;4991033;28;20313;-69
2022/07/31 12:30:15;;;;;;;4.90;3.40;;;18.80;99.90;;;;;;4994764;28;20213;-70
2022/07/31 12:32:42;;;;;;;4.85;3.17;;;18.80;99.90;;;;;;4995500;28;20557;-71
2022/07/31 12:35:10;;;;;;;4.63;3.28;;;18.80;99.90;;;;;;4993565;28;20270;-71
2022/07/31 12:37:46;;;;;;;4.15;3.60;;;18.80;99.90;;;;;;4994734;28;20287;-69
2022/07/31 12:40:24;;;;;;;3.30;3.00;;;18.80;99.90;;;;;;4993293;28;20659;-72
2022/07/31 12:42:52;;;;;;;3.40;2.78;;;18.70;99.90;;;;;;4992317;28;20222;-71
2022/07/31 12:45:34;;;;;;;5.25;3.45;;;18.70;99.90;;;;;;4993811;28;20310;-73
2022/07/31 12:48:01;;;;;;;3.45;3.15;;;18.80;99.90;;;;;;4994914;28;20219;-71
2022/07/31 12:50:30;;;;;;;4.15;3.67;;;18.80;99.90;;;;;;4989147;28;20223;-69
2022/07/31 12:53:01;;;;;;;3.25;2.92;;;18.80;99.90;;;;;;4984002;28;20220;-72
2022/07/31 12:55:29;;;;;;;3.55;3.25;;;18.90;99.90;;;;;;4993312;28;20696;-69